Ionian Sky — 5BRU2 — position and weather

sailwx.info

Track history (hours):
 
Tides and Currents Weather Stations Pressure Air Temp Water Temp Dewpoint Dewpoint Depression Visibility Wind Speed Wind Dir Waves Ship Positions

Ionian Sky

Last reported at 2013-Sep-19 12:33 UTC. Time now 2014-Oct-20 18:02 UTC.
Position N 37°57' E 023°33'.
Warning: this ship's position is years out of date!

Length 164 m; draft 6.7 m.

Type: Passenger vessel. MMSI: 212756000.

Date/timePositionNaut miles runAvg speedWind from/ knotsBaromVisibWave heightAir tempDewpointWater temp
2013-Sep-19 12:33N 37°57' E 023°33'0 0.0
2013-Sep-19 11:33N 37°57' E 023°33'0 0.0
2013-Sep-19 10:33N 37°57' E 023°33'2 2.5
2013-Sep-19 09:33N 37°56' E 023°36'9 9.0
2013-Sep-19 08:33N 37°48' E 023°41'1211.6
2013-Sep-19 07:32N 37°39' E 023°51'1414.7
2013-Sep-19 06:33N 37°39' E 024°09'1615.6
2013-Sep-19 05:32N 37°49' E 024°24'3315.2
2013-Sep-19 03:21N 38°08' E 024°59'1215.0
2013-Sep-19 02:33N 38°15' E 025°11'1515.1
2013-Sep-19 01:33N 38°24' E 025°27'1515.1
2013-Sep-19 00:33N 38°32' E 025°43'  
2013-Sep-13 04:33N 38°09' E 026°23'1816.1
2013-Sep-13 03:28N 37°57' E 026°40'11 5.0
2013-Sep-13 01:12N 37°50' E 026°51'1015.5
2013-Sep-13 00:33N 37°56' E 026°42'1715.0
2013-Sep-12 23:25N 38°07' E 026°25'  
2013-Sep-10 15:25N 38°09' E 026°23'1416.1
2013-Sep-10 14:32N 38°00' E 026°37'7 2.2
2013-Sep-10 11:18N 37°55' E 026°43'  
Track history (hours):
 
Tides and Currents Weather Stations Pressure Air Temp Water Temp Dewpoint Dewpoint Depression Visibility Wind Speed Wind Dir Waves Ship Positions

Ionian Sky

Last reported at 2013-Sep-19 12:33 UTC. Time now 2014-Oct-20 18:02 UTC.
Position N 37°57' E 023°33'.
Warning: this ship's position is years out of date!

Length 164 m; draft 6.7 m.

Type: Passenger vessel. MMSI: 212756000.

Date/timePositionNaut miles runAvg speedWind from/ knotsBaromVisibWave heightAir tempDewpointWater temp
2013-Sep-19 12:33N 37°57' E 023°33'0 0.0
2013-Sep-19 11:33N 37°57' E 023°33'0 0.0
2013-Sep-19 10:33N 37°57' E 023°33'2 2.5
2013-Sep-19 09:33N 37°56' E 023°36'9 9.0
2013-Sep-19 08:33N 37°48' E 023°41'1211.6
2013-Sep-19 07:32N 37°39' E 023°51'1414.7
2013-Sep-19 06:33N 37°39' E 024°09'1615.6
2013-Sep-19 05:32N 37°49' E 024°24'3315.2
2013-Sep-19 03:21N 38°08' E 024°59'1215.0
2013-Sep-19 02:33N 38°15' E 025°11'1515.1
2013-Sep-19 01:33N 38°24' E 025°27'1515.1
2013-Sep-19 00:33N 38°32' E 025°43'  
2013-Sep-13 04:33N 38°09' E 026°23'1816.1
2013-Sep-13 03:28N 37°57' E 026°40'11 5.0
2013-Sep-13 01:12N 37°50' E 026°51'1015.5
2013-Sep-13 00:33N 37°56' E 026°42'1715.0
2013-Sep-12 23:25N 38°07' E 026°25'  
2013-Sep-10 15:25N 38°09' E 026°23'1416.1
2013-Sep-10 14:32N 38°00' E 026°37'7 2.2
2013-Sep-10 11:18N 37°55' E 026°43'  

Dump ship's entire track history